createdAt,value
2023-04-08T00:00:28.044Z,14.80
2023-04-08T00:02:56.301Z,13.90
2023-04-08T00:05:26.090Z,14.73
2023-04-08T00:07:54.438Z,14.95
2023-04-08T00:10:22.642Z,14.50
2023-04-08T00:12:50.756Z,13.95
2023-04-08T00:15:18.856Z,14.88
2023-04-08T00:17:47.040Z,14.88
2023-04-08T00:20:15.707Z,14.65
2023-04-08T00:22:45.188Z,12.85
2023-04-08T00:25:13.320Z,14.18
2023-04-08T00:27:41.379Z,13.80
2023-04-08T00:30:10.278Z,13.80
2023-04-08T00:32:38.664Z,14.48
2023-04-08T00:35:07.721Z,14.40
2023-04-08T00:37:35.900Z,15.32
2023-04-08T00:40:06.051Z,14.15
2023-04-08T00:42:34.104Z,13.82
2023-04-08T00:45:02.211Z,13.65
2023-04-08T00:47:30.598Z,13.25
2023-04-08T00:50:01.077Z,12.57
2023-04-08T00:52:29.409Z,12.13
2023-04-08T00:54:57.715Z,12.00
2023-04-08T00:57:27.179Z,13.07
2023-04-08T00:59:55.416Z,12.32
2023-04-08T01:02:32.946Z,12.68
2023-04-08T01:05:05.516Z,13.38
2023-04-08T01:07:35.769Z,13.35
2023-04-08T01:10:07.115Z,13.82
2023-04-08T01:12:55.244Z,13.43
2023-04-08T01:15:24.126Z,12.77
2023-04-08T01:17:55.722Z,13.05
2023-04-08T01:20:27.152Z,12.85
2023-04-08T01:23:09.740Z,14.02
2023-04-08T01:25:39.239Z,12.93
2023-04-08T01:28:12.604Z,13.30
2023-04-08T01:30:42.688Z,14.25
2023-04-08T01:33:14.699Z,14.82
2023-04-08T01:35:43.288Z,14.15
2023-04-08T01:38:16.560Z,16.20
2023-04-08T01:40:45.872Z,15.73
2023-04-08T01:43:17.567Z,15.98
2023-04-08T01:45:47.539Z,15.60
2023-04-08T01:48:16.622Z,15.88
2023-04-08T01:50:46.005Z,15.45
2023-04-08T01:53:14.196Z,17.05
2023-04-08T01:55:43.484Z,15.18
2023-04-08T01:58:16.731Z,15.48
2023-04-08T02:00:46.861Z,14.98
2023-04-08T02:03:19.028Z,15.93
2023-04-08T02:05:47.318Z,14.93
2023-04-08T02:08:15.427Z,15.25
2023-04-08T02:10:43.558Z,14.80
2023-04-08T02:13:11.691Z,15.38
2023-04-08T02:15:43.371Z,15.82
2023-04-08T02:18:17.619Z,14.85
2023-04-08T02:20:53.496Z,13.38
2023-04-08T02:23:25.641Z,15.05
2023-04-08T02:25:56.880Z,14.68
2023-04-08T02:28:27.787Z,14.85
2023-04-08T02:30:56.965Z,14.93
2023-04-08T02:33:27.365Z,15.13
2023-04-08T02:35:57.138Z,15.05
2023-04-08T02:38:29.945Z,15.07
2023-04-08T02:43:31.839Z,14.07
2023-04-08T02:46:03.725Z,14.57
2023-04-08T02:48:34.288Z,15.27
2023-04-08T02:51:02.339Z,15.55
2023-04-08T02:53:30.544Z,15.43
2023-04-08T02:55:58.588Z,15.07
2023-04-08T02:58:26.752Z,13.80
2023-04-08T03:00:55.074Z,14.32
2023-04-08T03:03:27.749Z,14.65
2023-04-08T03:08:25.943Z,13.18
2023-04-08T03:10:54.041Z,14.85
2023-04-08T03:13:22.147Z,14.70
2023-04-08T03:15:50.234Z,14.85
2023-04-08T03:18:18.735Z,13.90
2023-04-08T03:20:46.956Z,15.30
2023-04-08T03:23:16.533Z,15.13
2023-04-08T03:25:44.619Z,14.52
2023-04-08T03:28:12.714Z,14.70
2023-04-08T03:30:40.835Z,14.88
2023-04-08T03:33:08.975Z,13.98
2023-04-08T03:35:37.541Z,13.30
2023-04-08T03:38:05.759Z,14.77
2023-04-08T03:40:35.231Z,13.57
2023-04-08T03:43:03.309Z,13.63
2023-04-08T03:45:31.426Z,13.38
2023-04-08T03:47:59.579Z,14.55
2023-04-08T03:50:27.842Z,13.75
2023-04-08T03:52:55.920Z,14.38
2023-04-08T03:55:24.057Z,13.73
2023-04-08T03:57:53.526Z,13.85
2023-04-08T04:00:21.619Z,14.15
2023-04-08T04:02:49.773Z,15.10
2023-04-08T04:05:17.942Z,12.88
2023-04-08T04:07:46.048Z,13.80
2023-04-08T04:10:14.345Z,14.35
2023-04-08T04:12:42.406Z,15.45
2023-04-08T04:15:13.156Z,15.45
2023-04-08T04:17:41.284Z,14.48
2023-04-08T04:20:10.703Z,14.88
2023-04-08T04:22:38.737Z,13.80
2023-04-08T04:25:07.762Z,14.02
2023-04-08T04:27:36.867Z,15.20
2023-04-08T04:30:05.800Z,13.95
2023-04-08T04:32:35.314Z,14.40
2023-04-08T04:35:03.751Z,12.63
2023-04-08T04:37:31.747Z,12.88
2023-04-08T04:39:59.776Z,14.48
2023-04-08T04:42:27.955Z,13.07
2023-04-08T04:44:56.072Z,13.25
2023-04-08T04:47:24.638Z,12.35
2023-04-08T04:49:54.147Z,12.23
2023-04-08T04:52:22.214Z,11.98
2023-04-08T04:54:51.190Z,12.07
2023-04-08T04:57:20.828Z,11.70
2023-04-08T04:59:48.883Z,11.32
2023-04-08T05:02:17.192Z,10.95
2023-04-08T05:04:45.582Z,12.02
2023-04-08T05:07:15.110Z,10.32
2023-04-08T05:09:43.211Z,10.27
2023-04-08T05:12:11.290Z,10.55
2023-04-08T05:14:39.580Z,9.45
2023-04-08T05:17:07.620Z,10.05
2023-04-08T05:19:35.659Z,9.48
2023-04-08T05:22:03.728Z,9.70
2023-04-08T05:24:33.284Z,9.52
2023-04-08T05:27:01.594Z,9.45
2023-04-08T05:29:30.019Z,9.70
2023-04-08T05:31:58.102Z,9.43
2023-04-08T05:34:26.345Z,9.25
2023-04-08T05:36:54.544Z,9.73
2023-04-08T05:39:22.849Z,10.18
2023-04-08T05:41:52.287Z,9.90
2023-04-08T05:44:20.351Z,9.73
2023-04-08T05:46:48.543Z,9.07
2023-04-08T05:49:17.436Z,9.23
2023-04-08T05:51:45.538Z,9.38
2023-04-08T05:54:13.868Z,8.50
2023-04-08T05:56:41.986Z,9.40
2023-04-08T05:59:11.442Z,9.05
2023-04-08T06:01:39.910Z,9.38
2023-04-08T06:04:08.246Z,8.45
2023-04-08T06:06:38.648Z,8.98
2023-04-08T06:09:06.818Z,9.00
2023-04-08T06:11:34.894Z,9.00
2023-04-08T06:14:03.058Z,8.85
2023-04-08T06:16:32.542Z,9.00
2023-04-08T06:19:00.782Z,7.70
2023-04-08T06:21:28.851Z,8.38
2023-04-08T06:23:56.949Z,8.40
2023-04-08T06:26:25.032Z,8.85
2023-04-08T06:28:53.440Z,9.10
2023-04-08T06:31:21.990Z,8.77
2023-04-08T06:33:52.690Z,9.40
2023-04-08T06:36:20.806Z,8.70
2023-04-08T06:38:49.013Z,8.95
2023-04-08T06:41:17.368Z,8.77
2023-04-08T06:43:45.793Z,8.98
2023-04-08T06:46:13.916Z,9.95
2023-04-08T06:48:41.997Z,9.38
2023-04-08T06:51:11.707Z,9.25
2023-04-08T06:53:40.070Z,9.60
2023-04-08T06:56:09.193Z,9.07
2023-04-08T06:58:37.300Z,9.57
2023-04-08T07:01:05.512Z,9.82
2023-04-08T07:03:34.412Z,8.93
2023-04-08T07:06:02.529Z,10.43
2023-04-08T07:08:33.840Z,11.10
2023-04-08T07:11:02.623Z,10.27
2023-04-08T07:13:31.045Z,10.25
2023-04-08T07:15:59.163Z,11.27
2023-04-08T07:18:28.099Z,11.13
2023-04-08T07:20:56.558Z,11.35
2023-04-08T07:23:24.855Z,11.40
2023-04-08T07:25:54.770Z,11.10
2023-04-08T07:28:22.982Z,11.48
2023-04-08T07:30:51.146Z,11.13
2023-04-08T07:33:19.940Z,11.05
2023-04-08T07:35:48.574Z,11.45
2023-04-08T07:38:16.913Z,12.13
2023-04-08T07:40:45.438Z,11.13
2023-04-08T07:43:14.905Z,11.82
2023-04-08T07:45:43.088Z,11.77
2023-04-08T07:48:11.304Z,11.35
2023-04-08T07:51:09.016Z,11.38
2023-04-08T07:53:27.865Z,11.35
2023-04-08T07:55:56.023Z,10.85
2023-04-08T07:58:26.543Z,11.10
2023-04-08T08:00:59.214Z,11.77
2023-04-08T08:03:31.894Z,9.82
2023-04-08T08:06:01.641Z,9.75
2023-04-08T08:08:29.734Z,11.82
2023-04-08T08:10:57.828Z,10.20
2023-04-08T08:13:27.324Z,10.52
2023-04-08T08:15:56.053Z,10.43
2023-04-08T08:18:24.323Z,10.73
2023-04-08T08:20:53.045Z,10.35
2023-04-08T08:23:21.119Z,10.85
2023-04-08T08:25:49.207Z,10.98
2023-04-08T08:28:17.268Z,10.85
2023-04-08T08:30:46.918Z,9.90
2023-04-08T08:33:14.983Z,10.82
2023-04-08T08:35:43.148Z,9.77
2023-04-08T08:38:11.260Z,9.75
2023-04-08T08:40:39.373Z,10.32
2023-04-08T08:43:07.468Z,9.50
2023-04-08T08:45:35.549Z,9.48
2023-04-08T08:48:05.153Z,8.73
2023-04-08T08:50:34.270Z,9.93
2023-04-08T08:53:02.580Z,9.00
2023-04-08T08:55:53.244Z,9.02
2023-04-08T08:58:22.482Z,10.48
2023-04-08T09:00:50.576Z,8.45
2023-04-08T09:03:22.019Z,8.77
2023-04-08T09:05:54.850Z,10.25
2023-04-08T09:08:30.547Z,9.10
2023-04-08T09:11:13.419Z,9.70
2023-04-08T09:13:41.784Z,8.98
2023-04-08T09:16:12.774Z,9.23
2023-04-08T09:18:44.765Z,9.27
2023-04-08T09:21:14.349Z,8.85
2023-04-08T09:23:44.724Z,8.73
2023-04-08T09:26:14.053Z,8.50
2023-04-08T09:28:43.611Z,10.05
2023-04-08T09:31:22.372Z,9.48
2023-04-08T09:33:54.560Z,9.32
2023-04-08T09:36:27.240Z,9.45
2023-04-08T09:38:56.145Z,10.02
2023-04-08T09:41:25.114Z,10.18
2023-04-08T09:43:55.941Z,9.07
2023-04-08T09:46:30.601Z,9.13
2023-04-08T09:49:07.778Z,8.73
2023-04-08T09:51:41.755Z,7.72
2023-04-08T09:54:16.239Z,9.90
2023-04-08T09:56:50.702Z,9.52
2023-04-08T09:59:21.937Z,8.93
2023-04-08T10:01:54.757Z,9.40
2023-04-08T10:06:58.291Z,8.20
2023-04-08T10:09:28.194Z,8.73
2023-04-08T10:11:57.371Z,8.38
2023-04-08T10:14:28.825Z,9.77
2023-04-08T10:17:27.769Z,9.32
2023-04-08T10:19:58.807Z,9.85
2023-04-08T10:22:49.268Z,8.00
2023-04-08T10:25:33.911Z,8.20
2023-04-08T10:28:03.523Z,8.68
2023-04-08T10:30:42.519Z,9.10
2023-04-08T10:33:15.418Z,8.38
2023-04-08T10:35:48.938Z,8.02
2023-04-08T10:38:18.092Z,8.80
2023-04-08T10:40:47.094Z,8.55
2023-04-08T10:43:16.515Z,9.10
2023-04-08T10:45:48.599Z,8.90
2023-04-08T10:48:27.825Z,9.52
2023-04-08T10:50:59.821Z,8.63
2023-04-08T10:53:29.705Z,9.23
2023-04-08T10:56:06.347Z,10.25
2023-04-08T10:58:34.761Z,9.13
2023-04-08T11:01:08.538Z,8.95
2023-04-08T11:03:37.952Z,9.93
2023-04-08T11:06:07.763Z,9.77
2023-04-08T11:08:38.694Z,9.20
2023-04-08T11:11:09.392Z,10.02
2023-04-08T11:13:38.367Z,9.93
2023-04-08T11:16:17.844Z,9.80
2023-04-08T11:18:48.261Z,9.93
2023-04-08T11:21:18.436Z,9.60
2023-04-08T11:23:47.172Z,9.63
2023-04-08T11:26:16.685Z,9.27
2023-04-08T11:28:45.769Z,8.77
2023-04-08T11:31:14.687Z,9.50
2023-04-08T11:33:47.616Z,8.93
2023-04-08T11:36:19.195Z,9.15
2023-04-08T11:38:48.479Z,9.77
2023-04-08T11:41:17.759Z,9.50
2023-04-08T11:43:58.607Z,9.48
2023-04-08T11:46:29.408Z,9.02
2023-04-08T11:49:06.077Z,8.52
2023-04-08T11:51:36.350Z,9.40
2023-04-08T11:54:06.655Z,9.32
2023-04-08T11:56:46.602Z,9.20
2023-04-08T11:59:14.655Z,8.32
2023-04-08T12:01:42.836Z,9.00
2023-04-08T12:04:12.791Z,8.23
2023-04-08T12:06:43.790Z,8.80
2023-04-08T12:09:11.929Z,8.88
2023-04-08T12:11:40.086Z,8.07
2023-04-08T12:14:08.561Z,9.13
2023-04-08T12:16:36.784Z,8.93
2023-04-08T12:19:04.975Z,9.02
2023-04-08T12:21:34.289Z,9.30
2023-04-08T12:24:03.872Z,9.00
2023-04-08T12:26:32.066Z,8.90
2023-04-08T12:29:00.068Z,8.77
2023-04-08T12:31:28.822Z,9.55
2023-04-08T12:33:57.490Z,9.65
2023-04-08T12:36:27.097Z,8.50
2023-04-08T12:38:55.316Z,8.75
2023-04-08T12:41:27.630Z,6.95
2023-04-08T12:43:55.635Z,7.00
2023-04-08T12:46:24.077Z,6.65
2023-04-08T12:49:03.483Z,7.90
2023-04-08T12:51:32.737Z,7.40
2023-04-08T12:54:02.078Z,6.50
2023-04-08T12:56:31.961Z,6.97
2023-04-08T12:59:01.065Z,7.15
2023-04-08T13:01:29.238Z,7.38
2023-04-08T13:03:57.770Z,7.13
2023-04-08T13:06:26.071Z,7.47
2023-04-08T13:08:54.155Z,6.72
2023-04-08T13:11:22.487Z,7.07
2023-04-08T13:13:52.318Z,7.20
2023-04-08T13:16:20.528Z,7.28
2023-04-08T13:18:48.805Z,7.80
2023-04-08T13:21:17.355Z,8.52
2023-04-08T13:23:47.041Z,7.90
2023-04-08T13:26:15.414Z,8.35
2023-04-08T13:28:55.875Z,8.18
2023-04-08T13:31:26.688Z,8.13
2023-04-08T13:33:57.645Z,7.28
2023-04-08T13:36:26.996Z,7.28
2023-04-08T13:38:55.103Z,8.40
2023-04-08T13:41:23.301Z,7.22
2023-04-08T13:43:51.369Z,6.85
2023-04-08T13:46:19.532Z,7.38
2023-04-08T13:48:49.481Z,7.00
2023-04-08T13:51:20.217Z,6.82
2023-04-08T13:53:48.378Z,6.80
2023-04-08T13:56:16.572Z,6.43
2023-04-08T13:58:49.834Z,6.93
2023-04-08T14:01:23.458Z,6.68
2023-04-08T14:03:54.357Z,6.60
2023-04-08T14:06:22.768Z,6.70
2023-04-08T14:08:51.489Z,5.65
2023-04-08T14:11:19.927Z,5.40
2023-04-08T14:13:48.735Z,5.25
2023-04-08T14:16:16.985Z,5.60
2023-04-08T14:18:45.569Z,5.75
2023-04-08T14:21:15.831Z,5.55
2023-04-08T14:23:44.029Z,5.95
2023-04-08T14:26:12.115Z,5.82
2023-04-08T14:28:43.523Z,5.15
2023-04-08T14:31:12.725Z,5.57
2023-04-08T14:33:41.893Z,5.97
2023-04-08T14:36:10.518Z,5.60
2023-04-08T14:38:42.908Z,6.03
2023-04-08T14:41:13.074Z,6.10
2023-04-08T14:43:41.359Z,5.88
2023-04-08T14:46:09.577Z,5.55
2023-04-08T14:48:37.778Z,5.88
2023-04-08T14:51:06.446Z,6.22
2023-04-08T14:53:34.981Z,5.20
2023-04-08T14:56:05.162Z,5.97
2023-04-08T14:58:33.811Z,5.60
2023-04-08T15:01:02.097Z,5.68
2023-04-08T15:03:30.577Z,5.43
2023-04-08T15:05:59.914Z,5.50
2023-04-08T15:08:28.292Z,5.68
2023-04-08T15:10:57.122Z,5.70
2023-04-08T15:13:26.772Z,5.10
2023-04-08T15:15:54.905Z,5.63
2023-04-08T15:18:26.050Z,5.03
2023-04-08T15:20:54.230Z,5.32
2023-04-08T15:23:24.678Z,5.35
2023-04-08T15:25:53.004Z,5.05
2023-04-08T15:28:21.313Z,6.15
2023-04-08T15:30:51.100Z,5.00
2023-04-08T15:33:19.397Z,4.93
2023-04-08T15:35:47.846Z,4.10
2023-04-08T15:38:16.190Z,4.28
2023-04-08T15:40:46.753Z,4.70
2023-04-08T15:43:16.553Z,4.80
2023-04-08T15:45:46.487Z,4.60
2023-04-08T15:48:15.930Z,4.65
2023-04-08T15:50:44.084Z,4.72
2023-04-08T15:53:12.329Z,5.10
2023-04-08T15:55:41.251Z,5.05
2023-04-08T15:58:09.790Z,4.80
2023-04-08T16:00:40.403Z,4.68
2023-04-08T16:03:12.072Z,5.45
2023-04-08T16:05:42.337Z,5.07
2023-04-08T16:08:11.127Z,5.38
2023-04-08T16:10:42.965Z,5.05
2023-04-08T16:13:11.057Z,5.10
2023-04-08T16:15:39.178Z,4.70
2023-04-08T16:18:08.040Z,5.32
2023-04-08T16:20:39.328Z,5.72
2023-04-08T16:23:08.888Z,5.38
2023-04-08T16:25:37.606Z,5.10
2023-04-08T16:28:06.602Z,5.32
2023-04-08T16:30:37.743Z,5.85
2023-04-08T16:33:06.229Z,5.35
2023-04-08T16:35:34.428Z,5.35
2023-04-08T16:38:02.476Z,5.57
2023-04-08T16:40:33.682Z,5.97
2023-04-08T16:43:04.238Z,5.45
2023-04-08T16:45:33.486Z,5.50
2023-04-08T16:48:05.243Z,4.95
2023-04-08T16:50:34.092Z,5.20
2023-04-08T16:53:02.222Z,5.25
2023-04-08T16:55:33.813Z,4.60
2023-04-08T16:58:02.604Z,5.45
2023-04-08T17:00:31.497Z,5.32
2023-04-08T17:03:00.799Z,5.60
2023-04-08T17:05:29.063Z,5.05
2023-04-08T17:07:57.806Z,5.35
2023-04-08T17:10:28.884Z,5.32
2023-04-08T17:12:59.232Z,5.43
2023-04-08T17:15:27.406Z,5.43
2023-04-08T17:17:55.521Z,4.55
2023-04-08T17:20:24.977Z,4.78
2023-04-08T17:22:53.049Z,5.30
2023-04-08T17:25:21.160Z,5.50
2023-04-08T17:27:49.231Z,5.10
2023-04-08T17:30:18.744Z,4.85
2023-04-08T17:32:46.921Z,4.90
2023-04-08T17:35:15.049Z,4.82
2023-04-08T17:37:43.178Z,4.32
2023-04-08T17:40:11.577Z,4.28
2023-04-08T17:42:39.701Z,4.80
2023-04-08T17:45:09.292Z,4.50
2023-04-08T17:47:38.787Z,5.20
2023-04-08T17:50:09.785Z,5.22
2023-04-08T17:52:39.434Z,5.57
2023-04-08T17:55:08.834Z,5.30
2023-04-08T17:57:37.634Z,5.38
2023-04-08T18:00:06.661Z,5.53
2023-04-08T18:02:35.316Z,5.35
2023-04-08T18:05:06.617Z,5.90
2023-04-08T18:07:34.789Z,6.18
2023-04-08T18:10:02.995Z,5.93
2023-04-08T18:12:31.695Z,6.03
2023-04-08T18:15:00.142Z,6.60
2023-04-08T18:17:28.939Z,6.90
2023-04-08T18:19:57.062Z,6.82
2023-04-08T18:22:26.512Z,7.50
2023-04-08T18:24:54.582Z,7.40
2023-04-08T18:27:22.727Z,7.55
2023-04-08T18:29:53.430Z,7.90
2023-04-08T18:32:21.889Z,8.07
2023-04-08T18:34:52.214Z,8.43
2023-04-08T18:37:21.351Z,9.10
2023-04-08T18:39:51.251Z,8.63
2023-04-08T18:42:19.381Z,8.43
2023-04-08T18:44:47.532Z,7.32
2023-04-08T18:47:15.616Z,7.85
2023-04-08T18:49:43.766Z,7.78
2023-04-08T18:52:12.165Z,8.35
2023-04-08T18:54:40.310Z,8.80
2023-04-08T18:57:09.917Z,8.23
2023-04-08T18:59:38.033Z,8.80
2023-04-08T19:02:06.550Z,8.30
2023-04-08T19:04:34.679Z,8.27
2023-04-08T19:07:03.066Z,8.10
2023-04-08T19:09:31.989Z,7.65
2023-04-08T19:12:00.089Z,8.00
2023-04-08T19:14:29.582Z,8.38
2023-04-08T19:16:57.672Z,7.70
2023-04-08T19:19:26.148Z,7.82
2023-04-08T19:21:54.295Z,7.40
2023-04-08T19:24:22.407Z,8.00
2023-04-08T19:26:51.466Z,7.90
2023-04-08T19:29:23.043Z,6.85
2023-04-08T19:31:52.939Z,7.35
2023-04-08T19:34:21.200Z,7.30
2023-04-08T19:36:49.451Z,7.25
2023-04-08T19:39:18.192Z,7.22
2023-04-08T19:41:46.326Z,6.72
2023-04-08T19:44:14.625Z,7.30
2023-04-08T19:46:42.804Z,6.97
2023-04-08T19:49:12.383Z,6.88
2023-04-08T19:51:40.524Z,7.05
2023-04-08T19:54:08.631Z,7.20
2023-04-08T19:56:37.129Z,6.85
2023-04-08T19:59:05.365Z,7.10
2023-04-08T20:01:35.985Z,6.88
2023-04-08T20:04:04.416Z,7.68
2023-04-08T20:06:34.898Z,7.10
2023-04-08T20:09:05.762Z,7.18
2023-04-08T20:11:34.157Z,7.18
2023-04-08T20:14:02.285Z,7.40
2023-04-08T20:16:30.414Z,7.65
2023-04-08T20:18:58.547Z,7.00
2023-04-08T20:21:26.827Z,7.10
2023-04-08T20:23:56.736Z,7.18
2023-04-08T20:26:24.835Z,6.97
2023-04-08T20:28:53.326Z,7.30
2023-04-08T20:31:22.588Z,6.97
2023-04-08T20:33:51.283Z,6.75
2023-04-08T20:36:19.415Z,7.05
2023-04-08T20:38:49.096Z,6.60
2023-04-08T20:41:21.264Z,7.00
2023-04-08T20:43:51.550Z,6.38
2023-04-08T20:46:19.959Z,6.88
2023-04-08T20:48:48.413Z,6.88
2023-04-08T20:51:17.486Z,6.75
2023-04-08T20:53:45.892Z,7.18
2023-04-08T20:56:13.981Z,6.97
2023-04-08T20:58:43.527Z,7.57
2023-04-08T21:01:11.661Z,6.25
2023-04-08T21:03:40.116Z,6.72
2023-04-08T21:06:09.157Z,6.78
2023-04-08T21:08:37.311Z,6.65
2023-04-08T21:11:05.418Z,7.45
2023-04-08T21:13:33.476Z,6.13
2023-04-08T21:16:03.168Z,7.15
2023-04-08T21:18:31.360Z,7.05
2023-04-08T21:20:59.807Z,6.22
2023-04-08T21:23:28.499Z,7.68
2023-04-08T21:25:56.619Z,7.05
2023-04-08T21:28:24.812Z,7.55
2023-04-08T21:30:54.194Z,7.43
2023-04-08T21:33:23.918Z,6.43
2023-04-08T21:35:52.110Z,7.10
2023-04-08T21:38:20.199Z,7.43
2023-04-08T21:40:51.282Z,9.13
2023-04-08T21:43:19.291Z,8.98
2023-04-08T21:45:47.408Z,7.90
2023-04-08T21:48:15.583Z,9.80
2023-04-08T21:50:46.071Z,9.93
2023-04-08T21:53:14.768Z,8.63
2023-04-08T21:55:43.175Z,6.63
2023-04-08T21:58:12.533Z,7.18
2023-04-08T22:00:41.008Z,7.47
2023-04-08T22:03:09.287Z,6.78
2023-04-08T22:05:37.806Z,6.97
2023-04-08T22:08:07.696Z,6.97
2023-04-08T22:10:38.849Z,6.57
2023-04-08T22:13:07.113Z,7.05
2023-04-08T22:15:35.187Z,7.30
2023-04-08T22:18:05.032Z,8.85
2023-04-08T22:20:33.398Z,12.25
2023-04-08T22:23:01.583Z,12.95
2023-04-08T22:25:31.187Z,12.52
2023-04-08T22:27:59.209Z,12.68
2023-04-08T22:30:27.405Z,11.18
2023-04-08T22:32:55.546Z,10.95
2023-04-08T22:35:23.713Z,10.27
2023-04-08T22:37:51.804Z,10.18
2023-04-08T22:40:20.055Z,9.98
2023-04-08T22:42:49.774Z,8.20
2023-04-08T22:45:17.877Z,8.57
2023-04-08T22:47:46.119Z,7.90
2023-04-08T22:50:14.144Z,8.10
2023-04-08T22:52:42.215Z,8.38
2023-04-08T22:55:10.686Z,8.23
2023-04-08T22:57:38.924Z,8.13
2023-04-08T23:00:09.764Z,7.20
2023-04-08T23:02:37.926Z,7.95
2023-04-08T23:05:06.762Z,7.30
2023-04-08T23:07:34.846Z,5.97
2023-04-08T23:10:03.184Z,7.80
2023-04-08T23:12:31.293Z,7.75
2023-04-08T23:14:59.311Z,9.07
2023-04-08T23:17:28.819Z,8.43
2023-04-08T23:19:56.897Z,7.68
2023-04-08T23:22:25.786Z,8.73
2023-04-08T23:24:53.872Z,8.93
2023-04-08T23:27:22.002Z,10.02
2023-04-08T23:29:50.073Z,9.93
2023-04-08T23:32:18.230Z,7.65
2023-04-08T23:34:47.844Z,10.45
2023-04-08T23:37:15.995Z,9.13
2023-04-08T23:39:44.044Z,11.90
2023-04-08T23:42:12.150Z,11.25
2023-04-08T23:44:40.260Z,11.43
2023-04-08T23:47:08.382Z,9.90
2023-04-08T23:49:36.379Z,11.98
2023-04-08T23:52:06.285Z,10.95
2023-04-08T23:54:34.382Z,10.85
2023-04-08T23:57:02.502Z,10.70
2023-04-08T23:59:30.604Z,12.25
